Time;durP1;ratioP1;P1;durP2;ratioP2;P2;SDS_P1;SDS_P2;PMS_P1;PMS_P2;Temp;Humidity;BMP_temperature;BMP_pressure;BME280_temperature;BME280_humidity;BME280_pressure;Samples;Min_cycle;Max_cycle;Signal;HPM_P1;HPM_P2
2022/05/28 00:01:29;;;;;;;5.10;1.30;;;;;;;6.65;66.76;98993.92;431415;1270;146590;-53
2022/05/28 00:11:36;;;;;;;2.70;1.10;;;;;;;6.47;67.31;99000.17;430937;1270;142163;-49
2022/05/28 00:21:39;;;;;;;6.10;1.70;;;;;;;6.49;68.06;98999.71;432292;1270;146446;-52
2022/05/28 00:31:42;;;;;;;5.30;1.20;;;;;;;6.43;68.08;98999.31;430230;1270;143047;-49
2022/05/28 00:41:46;;;;;;;8.10;1.20;;;;;;;6.14;68.93;98994.14;431777;1270;141716;-49
2022/05/28 00:51:51;;;;;;;1.30;1.00;;;;;;;6.22;69.56;98982.45;431175;1271;141092;-51
2022/05/28 01:01:59;;;;;;;2.10;1.30;;;;;;;6.54;69.75;98971.77;430479;1270;145368;-50
2022/05/28 01:12:10;;;;;;;2.90;2.00;;;;;;;6.78;69.64;98962.95;432116;1270;141444;-52
2022/05/28 01:22:20;;;;;;;4.40;1.50;;;;;;;6.68;69.62;98953.41;431478;1271;142484;-48
2022/05/28 01:32:26;;;;;;;3.10;1.20;;;;;;;6.44;70.14;98938.23;430368;1270;140569;-50
2022/05/28 01:42:31;;;;;;;4.80;1.70;;;;;;;6.51;70.46;98929.85;431161;1271;141104;-49
2022/05/28 01:52:35;;;;;;;6.50;3.20;;;;;;;6.44;70.59;98923.10;430930;1270;141455;-53
2022/05/28 02:02:39;;;;;;;3.40;1.10;;;;;;;6.48;70.84;98910.20;431307;1271;141564;-53
2022/05/28 02:12:53;;;;;;;2.50;1.50;;;;;;;6.47;71.20;98912.16;430919;1271;142211;-49
2022/05/28 02:23:02;;;;;;;4.10;1.90;;;;;;;6.53;71.37;98915.13;431414;1271;142185;-52
2022/05/28 02:33:06;;;;;;;5.90;1.70;;;;;;;6.89;71.53;98906.05;432062;1271;141053;-53
2022/05/28 02:43:11;;;;;;;8.60;2.10;;;;;;;7.03;71.02;98901.79;431333;1270;145533;-49
2022/05/28 02:53:14;;;;;;;2.50;1.70;;;;;;;7.05;70.66;98897.30;430357;1270;141977;-48
2022/05/28 03:03:19;;;;;;;3.00;1.30;;;;;;;7.25;70.56;98899.23;431063;1268;142255;-50
2022/05/28 03:13:22;;;;;;;4.50;2.20;;;;;;;7.93;69.78;98896.26;431580;1270;182563;-49
2022/05/28 03:23:26;;;;;;;4.10;1.20;;;;;;;9.44;69.26;98894.02;430068;1271;141260;-49
2022/05/28 03:33:29;;;;;;;5.00;2.30;;;;;;;9.64;66.92;98898.80;431210;1271;141460;-53
2022/05/28 03:43:33;;;;;;;8.20;2.60;;;;;;;8.93;67.20;98901.39;430955;1271;145697;-54
2022/05/28 03:53:36;;;;;;;4.70;2.10;;;;;;;8.70;67.85;98904.35;431401;1270;141330;-49
2022/05/28 04:03:39;;;;;;;2.30;1.30;;;;;;;8.96;67.98;98896.50;431106;1271;141133;-46
2022/05/28 04:13:43;;;;;;;4.80;1.20;;;;;;;10.21;66.39;98898.55;430271;1271;147667;-53
2022/05/28 04:23:46;;;;;;;4.10;0.90;;;;;;;12.83;65.81;98891.80;431455;1270;141676;-52
2022/05/28 04:33:49;;;;;;;4.90;1.50;;;;;;;20.21;55.10;98884.02;431608;1270;140970;-51
2022/05/28 04:43:52;;;;;;;5.70;1.30;;;;;;;16.84;52.19;98900.29;431477;1270;141527;-51
2022/05/28 04:53:55;;;;;;;2.30;1.10;;;;;;;15.74;52.04;98897.46;431043;1271;142601;-52
2022/05/28 05:03:58;;;;;;;4.80;1.30;;;;;;;15.69;53.65;98898.34;432450;1270;147440;-53
2022/05/28 05:14:02;;;;;;;3.60;1.30;;;;;;;16.23;50.27;98901.67;431078;1270;142412;-54
2022/05/28 05:24:06;;;;;;;1.70;0.60;;;;;;;16.15;50.40;98903.31;432446;1271;140816;-55
2022/05/28 05:34:10;;;;;;;4.40;1.10;;;;;;;17.55;48.82;98892.46;430630;1271;141568;-51
2022/05/28 05:44:13;;;;;;;3.30;1.50;;;;;;;16.34;47.19;98901.52;430304;1270;140853;-51
2022/05/28 05:54:16;;;;;;;5.50;1.10;;;;;;;15.24;47.82;98905.21;430952;1271;141532;-60
2022/05/28 06:04:20;;;;;;;3.80;0.80;;;;;;;20.16;47.72;98897.07;431060;1271;143103;-55
2022/05/28 06:14:23;;;;;;;3.30;1.00;;;;;;;26.04;38.67;98882.62;431003;1271;142728;-54
2022/05/28 06:24:26;;;;;;;3.00;1.20;;;;;;;31.40;33.93;98882.45;431649;1271;142085;-53
2022/05/28 06:34:29;;;;;;;2.50;0.90;;;;;;;26.46;32.41;98891.14;431406;1270;141139;-54
2022/05/28 06:44:33;;;;;;;4.10;1.10;;;;;;;20.82;35.42;98889.55;431791;1271;195254;-53
2022/05/28 06:54:36;;;;;;;2.20;1.00;;;;;;;19.28;36.88;98886.92;433550;1271;142123;-55
2022/05/28 07:04:39;;;;;;;4.00;1.20;;;;;;;19.75;36.83;98884.09;436851;1271;141252;-54
2022/05/28 07:14:42;;;;;;;2.80;1.00;;;;;;;22.77;35.68;98884.80;431905;1271;140353;-54
2022/05/28 07:24:45;;;;;;;4.40;1.20;;;;;;;25.63;31.56;98882.81;431528;1271;141224;-53
2022/05/28 07:34:48;;;;;;;3.40;1.00;;;;;;;22.63;32.32;98878.30;430810;1271;141684;-54
2022/05/28 07:44:51;;;;;;;1.70;0.80;;;;;;;26.43;32.32;98860.38;432501;1270;142394;-52
2022/05/28 07:54:54;;;;;;;1.40;0.70;;;;;;;31.06;26.68;98853.20;433610;1271;144632;-52
2022/05/28 08:04:57;;;;;;;2.70;0.40;;;;;;;21.56;30.91;98882.34;434593;1271;147059;-52
2022/05/28 08:15:00;;;;;;;2.60;0.80;;;;;;;16.79;38.24;98876.83;432196;1271;144908;-49
2022/05/28 08:25:06;;;;;;;1.70;0.80;;;;;;;17.10;41.12;98848.44;432853;1270;140075;-52
2022/05/28 08:35:10;;;;;;;2.40;0.80;;;;;;;16.75;42.07;98859.30;434444;1271;332086;-55
2022/05/28 08:45:15;;;;;;;2.70;1.10;;;;;;;16.16;43.71;98844.55;435032;1270;141355;-52
2022/05/28 08:55:24;;;;;;;4.30;1.20;;;;;;;16.76;42.78;98827.98;437815;1270;140563;-57
2022/05/28 09:05:30;;;;;;;3.00;0.70;;;;;;;17.26;40.72;98830.55;431648;1271;140917;-53
2022/05/28 09:15:36;;;;;;;1.60;0.40;;;;;;;16.36;39.62;98831.08;447631;1270;141498;-53
2022/05/28 09:25:43;;;;;;;2.90;1.00;;;;;;;16.24;40.00;98809.38;445351;1269;142782;-54
2022/05/28 09:35:57;;;;;;;5.20;0.70;;;;;;;16.14;39.88;98815.48;431345;1270;141423;-52
2022/05/28 09:46:12;;;;;;;1.40;0.70;;;;;;;14.47;43.57;98853.58;431811;1271;142119;-51
2022/05/28 09:56:22;;;;;;;2.20;0.80;;;;;;;15.01;46.47;98852.04;430460;1270;183559;-53
2022/05/28 10:06:26;;;;;;;1.70;0.70;;;;;;;14.39;47.13;98867.19;431036;1270;141717;-50
2022/05/28 10:16:37;;;;;;;3.30;0.80;;;;;;;12.30;50.57;98939.79;430640;1271;142911;-51
2022/05/28 10:26:54;;;;;;;2.70;0.70;;;;;;;10.47;53.91;98939.49;436294;1271;143097;-50
2022/05/28 10:37:08;;;;;;;2.80;0.40;;;;;;;10.10;56.78;98908.98;432871;1271;143970;-52
2022/05/28 10:47:32;;;;;;;1.60;0.70;;;;;;;11.09;57.85;98903.23;432363;1271;142437;-52
2022/05/28 10:58:04;;;;;;;3.30;0.60;;;;;;;11.67;57.64;98891.91;431010;1270;140899;-51
2022/05/28 11:08:17;;;;;;;0.90;0.90;;;;;;;12.26;57.24;98887.20;429641;1270;198245;-53
2022/05/28 11:18:50;;;;;;;1.80;0.60;;;;;;;12.74;56.28;98894.54;431850;1271;140874;-52
2022/05/28 11:29:08;;;;;;;1.10;0.30;;;;;;;13.33;55.04;98882.02;429925;1270;141567;-51
2022/05/28 11:39:20;;;;;;;2.90;1.20;;;;;;;12.91;54.03;98887.33;431274;1271;140589;-49
2022/05/28 11:59:54;;;;;;;2.00;1.10;;;;;;;12.95;53.33;98843.08;430952;1271;141163;-54
2022/05/28 12:09:57;;;;;;;2.40;0.90;;;;;;;13.21;52.67;98840.80;431861;1271;142302;-53
2022/05/28 12:20:04;;;;;;;2.50;0.50;;;;;;;13.69;51.83;98834.05;432600;1271;140969;-52
2022/05/28 12:30:23;;;;;;;5.10;0.90;;;;;;;14.17;50.51;98822.73;430787;1271;140668;-48
2022/05/28 12:40:49;;;;;;;3.80;0.70;;;;;;;14.48;49.48;98830.96;433811;1270;140417;-51
2022/05/28 12:51:13;;;;;;;1.20;0.60;;;;;;;13.93;51.35;98835.06;431171;1270;141130;-51
2022/05/28 13:01:22;;;;;;;2.00;0.80;;;;;;;13.91;52.50;98819.92;430771;1271;140879;-53
2022/05/28 13:11:34;;;;;;;2.70;0.70;;;;;;;14.48;50.99;98820.09;430876;1270;140781;-52
2022/05/28 13:21:53;;;;;;;4.70;0.70;;;;;;;14.90;49.80;98828.23;432094;1270;141556;-53
2022/05/28 13:32:05;;;;;;;1.80;1.20;;;;;;;14.98;48.91;98819.73;431218;1270;141731;-52
2022/05/28 13:42:11;;;;;;;1.40;0.50;;;;;;;14.40;48.33;98830.13;431161;1271;142753;-51
2022/05/28 13:52:17;;;;;;;1.40;0.50;;;;;;;14.66;47.27;98823.16;430839;1270;142357;-52
2022/05/28 14:02:24;;;;;;;6.00;1.20;;;;;;;14.72;46.83;98832.27;429573;1271;141256;-54
2022/05/28 14:12:34;;;;;;;1.30;0.60;;;;;;;14.92;46.73;98831.95;430726;1270;141245;-55
2022/05/28 14:22:44;;;;;;;2.60;1.40;;;;;;;14.79;45.93;98838.17;430267;1270;144743;-54
2022/05/28 14:32:48;;;;;;;4.50;1.20;;;;;;;14.59;44.85;98851.81;430727;1270;211599;-54
2022/05/28 14:42:56;;;;;;;3.70;1.10;;;;;;;14.71;44.58;98858.14;430779;1271;146513;-55
2022/05/28 14:52:59;;;;;;;0.60;0.60;;;;;;;14.34;44.78;98859.92;430262;1271;158718;-55
2022/05/28 15:03:11;;;;;;;3.70;0.90;;;;;;;14.23;45.11;98870.11;432607;1270;141394;-53
2022/05/28 15:13:24;;;;;;;6.20;0.80;;;;;;;14.34;45.13;98868.17;431057;1270;141923;-54
2022/05/28 15:23:30;;;;;;;6.90;2.50;;;;;;;13.97;45.67;98885.58;431041;1270;140981;-54
2022/05/28 15:33:33;;;;;;;6.20;1.40;;;;;;;13.36;46.47;98898.25;431449;1270;143461;-55
2022/05/28 15:43:39;;;;;;;3.70;1.40;;;;;;;12.97;47.50;98918.59;430716;1271;142366;-55
2022/05/28 15:53:42;;;;;;;2.90;1.20;;;;;;;12.62;49.23;98945.55;431544;1271;141222;-53
2022/05/28 16:03:45;;;;;;;2.20;0.80;;;;;;;11.97;53.50;98977.02;431028;1270;141721;-55
2022/05/28 16:13:49;;;;;;;2.00;1.20;;;;;;;11.19;57.14;98992.52;430848;1270;141330;-55
2022/05/28 16:23:52;;;;;;;2.00;0.80;;;;;;;11.16;59.10;98992.41;431833;1270;145851;-52
2022/05/28 16:34:00;;;;;;;2.30;1.30;;;;;;;11.26;60.17;98985.90;444834;1271;145087;-56
2022/05/28 16:44:05;;;;;;;1.50;1.10;;;;;;;11.25;60.78;98984.76;442616;1270;144085;-56
2022/05/28 16:54:08;;;;;;;1.80;0.90;;;;;;;11.24;60.67;98979.55;447416;1271;142887;-56
2022/05/28 17:04:12;;;;;;;1.50;1.00;;;;;;;10.93;61.09;98973.42;447301;1270;142521;-57
2022/05/28 17:14:15;;;;;;;1.40;0.90;;;;;;;11.11;61.51;98964.23;433539;1271;145347;-53
2022/05/28 17:24:24;;;;;;;3.70;2.10;;;;;;;11.14;61.04;98971.89;431140;1270;142398;-55
2022/05/28 17:34:27;;;;;;;;;;;;;;;10.87;61.35;98970.75;447684;1270;141785;-57
2022/05/28 17:44:30;;;;;;;2.50;1.70;;;;;;;10.83;61.97;98977.20;447155;1269;128112;-56
2022/05/28 17:54:34;;;;;;;3.40;1.30;;;;;;;10.77;62.18;98973.10;431303;1271;142165;-54
2022/05/28 18:04:38;;;;;;;4.40;1.80;;;;;;;10.58;62.67;98973.27;436719;1270;142467;-56
2022/05/28 18:14:45;;;;;;;4.70;2.00;;;;;;;10.48;63.25;98968.53;430994;1270;199420;-55
2022/05/28 18:24:49;;;;;;;4.80;2.20;;;;;;;10.14;63.98;98958.73;446157;1269;143486;-54
2022/05/28 18:34:53;;;;;;;3.00;2.50;;;;;;;9.91;64.83;98970.16;435878;1270;144416;-55
2022/05/28 18:44:56;;;;;;;8.00;3.60;;;;;;;9.68;65.40;98974.73;430811;1270;142886;-54
2022/05/28 18:54:59;;;;;;;4.50;3.00;;;;;;;9.32;66.11;98986.09;430883;1270;142328;-54
2022/05/28 19:05:03;;;;;;;13.60;12.30;;;;;;;9.25;66.82;98996.86;440731;1270;196012;-56
2022/05/28 19:15:08;;;;;;;10.30;6.10;;;;;;;9.31;66.71;99007.45;447633;1270;141823;-55
2022/05/28 19:35:34;;;;;;;6.90;4.60;;;;;;;9.20;66.62;99016.73;438035;1270;141636;-54
2022/05/28 19:45:43;;;;;;;11.90;6.10;;;;;;;8.83;67.09;99011.19;431094;1270;142134;-53
2022/05/28 19:55:46;;;;;;;9.70;6.60;;;;;;;8.70;67.82;99010.26;430995;1270;147488;-51
2022/05/28 20:05:52;;;;;;;9.60;6.00;;;;;;;8.75;67.66;99010.60;430912;1271;141764;-51
2022/05/28 20:15:55;;;;;;;11.60;5.50;;;;;;;8.64;67.65;99014.14;430898;1271;141430;-53
2022/05/28 20:26:00;;;;;;;9.00;4.20;;;;;;;8.45;67.78;99013.59;430106;1271;141599;-56
2022/05/28 20:36:05;;;;;;;6.80;2.90;;;;;;;8.31;68.20;99008.51;430543;1271;445499;-53
2022/05/28 20:46:12;;;;;;;4.50;2.30;;;;;;;8.31;68.50;99005.41;431271;1271;145673;-52
2022/05/28 20:56:16;;;;;;;3.60;2.10;;;;;;;8.27;68.70;99005.45;429931;1271;142176;-53
2022/05/28 21:06:25;;;;;;;3.60;2.10;;;;;;;8.20;69.01;99003.10;431565;1271;140875;-52
2022/05/28 21:16:29;;;;;;;4.80;1.20;;;;;;;8.35;69.13;99012.98;431421;1271;142716;-55
2022/05/28 21:36:55;;;;;;;5.30;1.90;;;;;;;8.51;68.76;99024.76;431535;1268;141374;-54
2022/05/28 21:46:59;;;;;;;3.40;1.20;;;;;;;8.57;68.87;99035.22;431321;1270;141427;-52
2022/05/28 21:57:03;;;;;;;2.10;1.10;;;;;;;8.68;68.82;99035.48;431483;1270;142880;-53
2022/05/28 22:07:07;;;;;;;3.00;1.00;;;;;;;8.75;68.55;99039.08;431377;1271;142342;-52
2022/05/28 22:17:12;;;;;;;2.30;1.80;;;;;;;8.78;68.63;99040.80;430168;1270;142108;-53
2022/05/28 22:27:15;;;;;;;1.60;1.10;;;;;;;8.78;68.75;99039.25;431610;1270;142194;-53
2022/05/28 22:37:18;;;;;;;5.00;1.50;;;;;;;8.73;68.78;99044.60;430684;1271;142465;-50
2022/05/28 22:47:22;;;;;;;2.80;2.50;;;;;;;8.58;69.19;99046.27;430393;1270;142571;-53
2022/05/28 22:57:25;;;;;;;3.10;1.80;;;;;;;8.49;69.58;99043.54;431137;1271;141489;-53
2022/05/28 23:07:28;;;;;;;3.20;2.10;;;;;;;8.37;70.14;99042.33;430231;1271;142441;-53
2022/05/28 23:17:32;;;;;;;5.50;1.90;;;;;;;8.26;70.31;99038.48;430505;1270;142462;-51
2022/05/28 23:27:35;;;;;;;4.30;3.00;;;;;;;8.14;70.63;99040.84;432447;1270;145246;-50
2022/05/28 23:37:39;;;;;;;4.00;2.00;;;;;;;7.82;71.16;99036.66;430469;1271;140877;-54
2022/05/28 23:47:42;;;;;;;6.10;2.20;;;;;;;7.50;71.75;99041.00;431394;1271;141680;-53
2022/05/28 23:57:49;;;;;;;2.90;2.30;;;;;;;7.20;72.38;99044.16;430531;1271;145719;-54
